This is the latest recevied weather packets stored in our database for station/object VE4GLS. If no packets are shown the sender has not sent any weather packets the latest 10 day(s).
| Time | Temp. | Humidity | Pressure | Rain* | Wind** | Luminosity | Snow |
|---|---|---|---|---|---|---|---|
| 1777915954 | 5.56° C | 61% | 999.1 hPa | 0 mm | - | - | - |
| 1777915395 | 6.11° C | 59% | 998.9 hPa | 0 mm | - | - | - |
| 1777915055 | 6.67° C | 58% | 998.8 hPa | 0 mm | - | - | - |
| 1777914795 | 6.67° C | 56% | 998.7 hPa | 0 mm | - | - | - |
| 1777914194 | 6.67° C | 56% | 998.5 hPa | 0 mm | - | - | - |
| 1777914154 | 6.67° C | 57% | 998.5 hPa | 0 mm | - | - | - |
| 1777913594 | 6.11° C | 56% | 998.5 hPa | 0 mm | - | - | - |
| 1777913256 | 6.11° C | 56% | 998.5 hPa | 0 mm | - | - | - |
| 1777912994 | 6.67° C | 56% | 998.6 hPa | 0 mm | - | - | - |
| 1777912395 | 5.56° C | 60% | 998.4 hPa | 0 mm | - | - | - |
| 1777912355 | 5.56° C | 59% | 998.5 hPa | 0 mm | - | - | - |
| 1777911794 | 5.56° C | 58% | 998.4 hPa | 0 mm | - | - | - |
| 1777911454 | 5.56° C | 57% | 998.3 hPa | 0 mm | - | - | - |
| 1777911193 | 6.11° C | 57% | 998.2 hPa | 0 mm | - | - | - |
| 1777910594 | 5.56° C | 61% | 998.1 hPa | 0 mm | - | - | - |
| 1777910554 | 5.56° C | 59% | 998.1 hPa | 0 mm | - | - | - |
| 1777909995 | 6.67° C | 57% | 997.8 hPa | 0 mm | - | - | - |
| 1777909656 | 6.67° C | 60% | 997.7 hPa | 0 mm | - | - | - |
| 1777909394 | 6.11° C | 59% | 997.6 hPa | 0 mm | - | - | - |
| 1777908794 | 6.11° C | 60% | 997.5 hPa | 0 mm | - | - | - |
| 1777908755 | 6.11° C | 60% | 997.5 hPa | 0 mm | - | - | - |
| 1777908193 | 6.11° C | 61% | 997.4 hPa | 0 mm | - | - | - |
| 1777907855 | 6.11° C | 62% | 997.4 hPa | 0 mm | - | - | - |
| 1777907593 | 6.11° C | 63% | 997.4 hPa | 0 mm | - | - | - |
| 1777906993 | 5.56° C | 64% | 997.3 hPa | 0 mm | - | - | - |
* Rain latest hour (hover to see other rain measurements)
** Current wind speed in m/s (hover to see current wind gust speed)